首页
METAR-TAF:

METAR-TAF

机场 :

阿纳姆, 荷兰

纬度: 52-04N, 经度: 005-53E, 海拔: 48米

当前天气观测

该预报发布于15分钟前的18:55 UTC
风速15节,风向西南,有时为25节阵风,在南转南东西之间变化
温度 8°C
湿度 76%
气压 1022 hPa
能见度10公里或以上
阴天层高于2700英尺

METAR: EHDL 211855Z AUTO 22015G25KT 160V280 9999 OVC027 08/04 Q1022 BLU

时间: 20:10 (19:10 UTC)

预报

该预报发布于25小时和26分钟前的17:44 UTC
预报有效从20日的 18点(UTC)到 21日的 06点(UTC)
风速18节,风向南转西南,有时为30节阵风
能见度10公里或以上
散云层高于1500英尺
多云层高于2000英尺
短暂存在
从 20日的 18点(UTC)到 20日的 20点(UTC)
风速25节,风向西南,有时为40节阵风
能見度: 2500
散云层高于600英尺
多云层高于1000英尺
散云层高于1800英尺, 积雨云.
雨, 阵雨
成为
从 20日的 19点(UTC)到 20日的 21点(UTC)
风速15节,风向西转西北,有时为25节阵风
散云层高于2500英尺
几率 30% :
短暂存在
从 20日的 20点(UTC)到 20日的 22点(UTC)
风速20节,风向西转西北,有时为35节阵风
能見度: 4000
散云层高于1200英尺
散云层高于2000英尺, 积雨云.
阵雨, 雷暴, 雨
成为
从 21日的 00点(UTC)到 21日的 02点(UTC)
风速10节,风向西转西南

TAF: EHDL 201744Z 2018/2106 21018G30KT 9999 SCT015 BKN020 TEMPO 2018/2020 23025G40KT 2500 RA SHRA SCT006 BKN010 SCT018CB BECMG 2019/2021 29015G25KT SCT025 PROB30 TEMPO 2020/2022 29020G35KT 4000 SHRA TSRA SCT012 SCT020CB BECMG 2100/2102 24010KT

超过4000个机场的气象观测和天气预报(METAR&TAF报告)。

可查询的气象台以黄色和红色小点在地图上表示。

将鼠标移到小点上方,可查看气象台名称。

然后点击查看天气观测和预报。

如需切换地图:点击带黑十字的绿色按钮放大地图;点击带横线的绿色按钮缩小地图;或者点击绿色箭头查看邻近地区的地图。


METAR-TAF: